Time;durP1;ratioP1;P1;durP2;ratioP2;P2;SDS_P1;SDS_P2;PMS_P1;PMS_P2;Temp;Humidity;BMP_temperature;BMP_pressure;BME280_temperature;BME280_humidity;BME280_pressure;Samples;Min_cycle;Max_cycle;Signal;HPM_P1;HPM_P2
2020/12/13 00:00:34;;;;;;;185.65;87.00;;;;;;;0.44;76.53;99472.05;2087656;83;27740;-65
2020/12/13 00:03:39;;;;;;;193.20;93.92;;;;;;;0.43;76.54;99475.59;2062931;84;27588;-61
2020/12/13 00:06:41;;;;;;;191.28;92.47;;;;;;;0.43;76.68;99479.11;2068038;85;31145;-60
2020/12/13 00:09:44;;;;;;;195.38;95.28;;;;;;;0.40;76.76;99476.53;2102739;83;33126;-62
2020/12/13 00:12:48;;;;;;;183.37;87.00;;;;;;;0.41;76.86;99472.14;2058098;85;29176;-63
2020/12/13 00:15:50;;;;;;;195.85;93.30;;;;;;;0.40;76.89;99479.16;2099178;83;27661;-61
2020/12/13 00:18:52;;;;;;;200.22;96.17;;;;;;;0.34;76.93;99479.75;2102043;83;28840;-63
2020/12/13 00:21:56;;;;;;;208.20;98.58;;;;;;;0.28;76.92;99479.44;2099922;82;31167;-73
2020/12/13 00:24:59;;;;;;;195.70;93.58;;;;;;;0.28;77.03;99482.92;2055437;84;33175;-62
2020/12/13 00:28:01;;;;;;;199.32;92.65;;;;;;;0.29;77.14;99490.39;2057940;84;29176;-63
2020/12/13 00:31:05;;;;;;;188.07;85.42;;;;;;;0.26;77.12;99488.66;2098697;82;27758;-69
2020/12/13 00:34:07;;;;;;;196.75;90.85;;;;;;;0.28;77.19;99488.19;2094620;83;29784;-62
2020/12/13 00:37:10;;;;;;;190.43;90.87;;;;;;;0.33;77.16;99494.70;2089515;83;31164;-61
2020/12/13 00:40:12;;;;;;;198.70;97.95;;;;;;;0.34;77.22;99495.09;2053762;85;33148;-67
2020/12/13 00:43:14;;;;;;;199.60;97.65;;;;;;;0.37;77.24;99504.25;2092196;83;30493;-68
2020/12/13 00:46:16;;;;;;;208.63;101.87;;;;;;;0.41;77.27;99502.45;2065783;84;27786;-67
2020/12/13 00:49:18;;;;;;;214.78;105.03;;;;;;;0.45;77.22;99512.00;2090875;83;30193;-70
2020/12/13 00:52:21;;;;;;;215.35;100.78;;;;;;;0.43;77.11;99508.52;2060168;85;32220;-63
2020/12/13 00:55:23;;;;;;;210.78;101.20;;;;;;;0.42;77.13;99508.10;2092060;83;33827;-67
2020/12/13 00:58:25;;;;;;;210.38;100.55;;;;;;;0.42;77.11;99516.89;2067078;84;29921;-62
2020/12/13 01:05:42;;;;;;;195.40;94.87;;;;;;;0.38;77.14;99523.11;1882133;92;27988;-72
2020/12/13 01:08:56;;;;;;;199.10;96.37;;;;;;;0.45;77.23;99514.63;2244472;77;34032;-61
2020/12/13 01:11:58;;;;;;;200.75;98.78;;;;;;;0.44;77.34;99521.69;2221742;79;27766;-64
2020/12/13 01:15:03;;;;;;;216.35;98.05;;;;;;;0.49;77.40;99520.73;2185460;80;28827;-71
2020/12/13 01:18:05;;;;;;;209.03;98.90;;;;;;;0.51;77.26;99522.85;2210056;80;31153;-76
2020/12/13 01:21:08;;;;;;;219.97;99.95;;;;;;;0.50;77.32;99525.10;2197799;80;33209;-73
2020/12/13 01:24:11;;;;;;;219.57;100.75;;;;;;;0.51;77.43;99527.69;2214323;80;28587;-64
2020/12/13 01:27:14;;;;;;;204.82;100.15;;;;;;;0.54;77.39;99525.43;2211691;80;28063;-68
2020/12/13 01:30:16;;;;;;;213.90;100.53;;;;;;;0.54;77.31;99524.11;2146243;80;28827;-79
2020/12/13 01:33:19;;;;;;;205.62;95.40;;;;;;;0.55;77.40;99528.48;2211403;80;31145;-80
2020/12/13 01:36:24;;;;;;;198.20;89.10;;;;;;;0.55;77.36;99528.48;2196747;80;33179;-78
2020/12/13 01:39:26;;;;;;;211.18;94.65;;;;;;;0.58;77.33;99534.55;2213952;80;29921;-75
2020/12/13 01:42:28;;;;;;;205.20;99.45;;;;;;;0.57;77.18;99536.80;2152451;81;27689;-80
2020/12/13 01:45:31;;;;;;;205.65;98.72;;;;;;;0.55;77.23;99537.70;2203834;80;28818;-75
2020/12/13 01:48:34;;;;;;;209.27;101.55;;;;;;;0.59;77.40;99541.56;2195528;80;30997;-72
2020/12/13 01:54:49;;;;;;;215.90;100.95;;;;;;;0.72;77.32;99542.17;2200921;80;28854;-75
2020/12/13 01:57:54;;;;;;;212.65;98.72;;;;;;;0.75;77.29;99546.50;2205311;80;27677;-75
2020/12/13 02:01:01;;;;;;;195.55;93.92;;;;;;;0.77;77.11;99549.98;2200006;80;29853;-74
2020/12/13 02:04:04;;;;;;;193.78;88.78;;;;;;;0.78;77.04;99548.22;2152021;81;31158;-70
2020/12/13 02:07:06;;;;;;;206.90;96.28;;;;;;;0.80;76.98;99550.38;2150023;81;33131;-67
2020/12/13 02:10:10;;;;;;;209.18;97.80;;;;;;;0.81;76.91;99555.61;2161598;81;29338;-76
2020/12/13 02:13:13;;;;;;;210.13;100.90;;;;;;;0.80;76.90;99557.83;2212309;79;27583;-77
2020/12/13 02:16:17;;;;;;;216.97;101.05;;;;;;;0.81;76.90;99554.29;2215406;79;28818;-80
2020/12/13 02:19:20;;;;;;;212.95;102.15;;;;;;;0.77;76.76;99555.25;2216938;79;31129;-76
2020/12/13 02:22:23;;;;;;;215.65;101.18;;;;;;;0.71;76.75;99559.36;2215915;79;33957;-75
2020/12/13 02:25:25;;;;;;;215.28;97.45;;;;;;;0.68;76.78;99563.37;2219568;79;29874;-62
2020/12/13 02:28:28;;;;;;;217.13;102.15;;;;;;;0.60;76.76;99565.70;2225910;79;27791;-66
2020/12/13 02:31:30;;;;;;;219.18;101.15;;;;;;;0.52;76.64;99558.85;2223315;79;28871;-61
2020/12/13 02:34:33;;;;;;;197.82;89.07;;;;;;;0.45;76.61;99562.95;2220022;79;32025;-66
2020/12/13 02:37:35;;;;;;;196.07;91.15;;;;;;;0.41;76.58;99560.41;2172616;81;33072;-67
2020/12/13 02:40:38;;;;;;;199.47;93.20;;;;;;;0.39;76.55;99563.06;2144959;82;30036;-61
2020/12/13 02:43:40;;;;;;;214.08;99.45;;;;;;;0.34;76.45;99557.47;2224031;79;27820;-67
2020/12/13 02:46:43;;;;;;;213.62;97.85;;;;;;;0.29;76.52;99557.56;2217920;79;30221;-66
2020/12/13 02:49:45;;;;;;;230.07;102.62;;;;;;;0.25;76.56;99555.41;2206684;79;31132;-62
2020/12/13 02:52:48;;;;;;;210.82;98.20;;;;;;;0.24;76.70;99555.45;2173465;81;34428;-65
2020/12/13 02:55:51;;;;;;;221.65;96.30;;;;;;;0.21;76.46;99553.77;2218783;79;28154;-69
2020/12/13 02:58:53;;;;;;;203.18;92.33;;;;;;;0.20;76.27;99559.04;2219108;79;27686;-67
2020/12/13 03:01:56;;;;;;;207.83;95.15;;;;;;;0.16;76.19;99560.02;2225123;79;28793;-67
2020/12/13 03:04:59;;;;;;;205.75;92.42;;;;;;;0.11;75.97;99570.62;2231531;79;33533;-76
2020/12/13 03:08:01;;;;;;;205.50;96.00;;;;;;;0.05;75.88;99571.60;2214230;79;34066;-78
2020/12/13 03:11:03;;;;;;;202.10;91.97;;;;;;;0.01;75.78;99573.86;2195072;81;29372;-74
2020/12/13 03:14:05;;;;;;;208.38;98.22;;;;;;;-0.04;75.83;99575.73;2195233;81;27690;-64
2020/12/13 03:17:08;;;;;;;209.70;91.87;;;;;;;-0.09;75.85;99574.51;2195257;81;28888;-72
2020/12/13 03:20:10;;;;;;;220.22;97.30;;;;;;;-0.14;75.90;99573.71;2191947;81;31292;-69
2020/12/13 03:23:12;;;;;;;218.75;97.95;;;;;;;-0.19;75.94;99571.17;2190277;81;33200;-72
2020/12/13 03:26:15;;;;;;;208.60;100.42;;;;;;;-0.22;75.92;99575.16;2183432;81;30222;-61
2020/12/13 03:29:18;;;;;;;195.15;87.85;;;;;;;-0.23;75.84;99576.48;2165194;81;27733;-71
2020/12/13 03:32:22;;;;;;;222.50;99.62;;;;;;;-0.28;75.71;99579.20;2209879;80;28882;-61
2020/12/13 03:35:24;;;;;;;240.75;102.72;;;;;;;-0.29;75.70;99587.98;2185722;80;31133;-63
2020/12/13 03:38:26;;;;;;;227.93;101.70;;;;;;;-0.33;75.71;99588.95;2183500;81;33131;-63
2020/12/13 03:41:28;;;;;;;229.63;96.35;;;;;;;-0.37;75.73;99585.95;2183208;81;28880;-62
2020/12/13 03:44:30;;;;;;;238.05;105.52;;;;;;;-0.43;76.00;99590.87;2175106;81;27647;-62
2020/12/13 03:47:32;;;;;;;219.22;93.05;;;;;;;-0.48;76.04;99592.70;2182942;81;28596;-67
2020/12/13 03:50:40;;;;;;;230.25;103.78;;;;;;;-0.51;76.04;99590.99;2182866;81;31159;-66
2020/12/13 03:53:42;;;;;;;232.90;99.17;;;;;;;-0.53;76.13;99594.09;2188781;80;33544;-61
2020/12/13 03:56:44;;;;;;;233.65;101.78;;;;;;;-0.57;76.34;99595.45;2182581;81;28930;-61
2020/12/13 03:59:46;;;;;;;219.95;94.70;;;;;;;-0.57;76.20;99598.08;2182982;81;27698;-61
2020/12/13 04:02:48;;;;;;;222.07;99.92;;;;;;;-0.58;76.07;99596.37;2193411;80;29280;-63
2020/12/13 04:05:50;;;;;;;212.90;94.35;;;;;;;-0.58;75.97;99599.86;2199464;80;30907;-61
2020/12/13 04:08:52;;;;;;;292.00;121.02;;;;;;;-0.59;75.87;99597.27;2204610;80;33779;-61
2020/12/13 04:11:55;;;;;;;216.95;94.97;;;;;;;-0.59;75.79;99607.33;2216386;80;29068;-61
2020/12/13 04:14:57;;;;;;;308.07;126.30;;;;;;;-0.63;75.63;99615.72;2217191;80;28067;-61
2020/12/13 04:18:00;;;;;;;269.13;110.05;;;;;;;-0.64;75.72;99615.72;2216883;79;28808;-61
2020/12/13 04:21:04;;;;;;;269.37;114.95;;;;;;;-0.67;75.87;99622.38;2208161;80;31075;-65
2020/12/13 04:24:06;;;;;;;256.10;108.37;;;;;;;-0.70;75.91;99625.89;2211831;80;33582;-61
2020/12/13 04:27:08;;;;;;;230.87;98.35;;;;;;;-0.70;75.83;99626.36;2209563;80;29454;-66
2020/12/13 04:30:14;;;;;;;214.10;93.30;;;;;;;-0.75;76.03;99623.80;2177894;81;27716;-63
2020/12/13 04:33:16;;;;;;;216.93;96.42;;;;;;;-0.81;76.06;99631.30;2202800;80;29775;-65
2020/12/13 04:36:18;;;;;;;211.82;91.55;;;;;;;-0.83;76.12;99629.59;2168562;82;32046;-77
2020/12/13 04:39:20;;;;;;;217.07;97.30;;;;;;;-0.84;76.30;99630.48;2208256;80;33981;-68
2020/12/13 04:42:23;;;;;;;205.90;88.95;;;;;;;-0.82;76.23;99632.66;2168709;81;29799;-70
2020/12/13 04:45:25;;;;;;;201.73;91.17;;;;;;;-0.83;76.17;99625.65;2189473;80;27743;-78
2020/12/13 04:48:27;;;;;;;202.65;90.42;;;;;;;-0.82;76.01;99622.13;2216891;80;28142;-73
2020/12/13 04:51:31;;;;;;;253.10;111.55;;;;;;;-0.82;76.04;99628.70;2217319;79;31130;-74
2020/12/13 04:54:33;;;;;;;242.47;99.62;;;;;;;-0.83;76.08;99625.65;2208528;80;33122;-70
2020/12/13 04:57:35;;;;;;;242.62;97.53;;;;;;;-0.87;76.17;99630.52;2190611;80;29844;-75
2020/12/13 05:00:42;;;;;;;230.95;97.62;;;;;;;-0.87;76.14;99635.78;2212012;80;27683;-72
2020/12/13 05:03:44;;;;;;;236.72;101.27;;;;;;;-0.90;76.24;99632.76;2180292;80;29072;-72
2020/12/13 05:06:47;;;;;;;235.38;98.00;;;;;;;-0.91;76.31;99634.96;2177998;81;31142;-72
2020/12/13 05:09:52;;;;;;;237.48;108.70;;;;;;;-0.92;76.24;99640.68;2177862;81;34063;-78
2020/12/13 05:12:54;;;;;;;233.68;100.33;;;;;;;-0.92;76.29;99646.36;2179303;80;30217;-71
2020/12/13 05:15:56;;;;;;;239.30;105.12;;;;;;;-0.92;76.11;99646.36;2178452;81;27705;-78
2020/12/13 05:18:58;;;;;;;270.23;104.70;;;;;;;-0.94;76.18;99642.45;2178366;81;29851;-75
2020/12/13 05:22:01;;;;;;;233.57;97.80;;;;;;;-0.96;76.37;99651.23;2178557;81;32148;-75
2020/12/13 05:25:10;;;;;;;255.18;102.17;;;;;;;-1.02;76.35;99652.19;2168802;80;34056;-69
2020/12/13 05:28:12;;;;;;;249.70;104.47;;;;;;;-1.04;76.36;99657.91;2177578;80;29793;-64
2020/12/13 05:31:17;;;;;;;246.15;101.95;;;;;;;-1.03;76.33;99664.05;2182587;80;27781;-76
2020/12/13 05:34:19;;;;;;;199.32;88.12;;;;;;;-1.01;76.37;99658.33;2168688;81;28869;-64
2020/12/13 05:37:22;;;;;;;249.47;103.32;;;;;;;-0.98;76.41;99662.20;2168623;82;31172;-71
2020/12/13 05:40:24;;;;;;;222.00;97.78;;;;;;;-0.97;76.50;99670.52;2192355;80;33132;-67
2020/12/13 05:43:29;;;;;;;239.75;97.53;;;;;;;-0.96;76.47;99665.69;2207809;78;29120;-60
2020/12/13 05:52:44;;;;;;;233.10;99.87;;;;;;;-0.89;76.46;99670.00;2185086;79;32494;-73
2020/12/13 05:55:46;;;;;;;211.30;93.52;;;;;;;-0.88;76.47;99670.42;2213883;80;35387;-70
2020/12/13 05:58:52;;;;;;;224.62;95.80;;;;;;;-0.87;76.46;99672.16;2182350;80;29846;-65
2020/12/13 06:01:58;;;;;;;221.60;91.95;;;;;;;-0.86;76.49;99679.59;2203665;80;27638;-62
2020/12/13 06:05:06;;;;;;;222.15;97.20;;;;;;;-0.86;76.45;99686.16;2190938;80;28801;-71
2020/12/13 06:08:12;;;;;;;219.80;93.05;;;;;;;-0.84;76.48;99694.48;2168897;80;31193;-68
2020/12/13 06:11:18;;;;;;;233.60;98.27;;;;;;;-0.83;76.58;99690.97;2168654;82;33632;-64
2020/12/13 06:14:22;;;;;;;218.52;93.03;;;;;;;-0.77;76.65;99693.95;2162123;80;29227;-66
2020/12/13 06:17:27;;;;;;;170.55;73.37;;;;;;;-0.73;76.71;99687.73;2169108;82;37392;-62
2020/12/13 06:20:30;;;;;;;206.25;89.77;;;;;;;-0.66;76.76;99699.93;2196125;80;29071;-70
2020/12/13 06:23:32;;;;;;;230.83;101.12;;;;;;;-0.61;76.74;99699.86;2217099;80;32116;-62
2020/12/13 06:26:36;;;;;;;249.80;102.97;;;;;;;-0.57;76.72;99691.47;2217178;80;33123;-65
2020/12/13 06:29:42;;;;;;;245.55;107.20;;;;;;;-0.53;76.86;99698.44;2185145;80;29143;-64
2020/12/13 06:32:47;;;;;;;245.70;104.90;;;;;;;-0.49;76.88;99711.52;2179615;80;27720;-73
2020/12/13 06:35:51;;;;;;;252.30;106.92;;;;;;;-0.45;76.92;99712.37;2145605;81;29001;-66
2020/12/13 06:38:57;;;;;;;244.45;98.95;;;;;;;-0.41;76.87;99710.56;2196353;79;31120;-62
2020/12/13 06:42:04;;;;;;;240.52;106.47;;;;;;;-0.38;77.14;99714.01;2178654;80;33095;-70
2020/12/13 06:45:10;;;;;;;232.27;99.52;;;;;;;-0.29;77.17;99718.73;2178659;81;29168;-70
2020/12/13 06:48:12;;;;;;;238.45;106.30;;;;;;;-0.25;77.07;99727.87;2203906;80;27740;-63
2020/12/13 06:51:21;;;;;;;224.95;100.38;;;;;;;-0.19;77.17;99730.42;2217306;80;28809;-67
2020/12/13 06:54:25;;;;;;;237.80;104.07;;;;;;;-0.12;77.23;99737.78;2216848;80;32530;-63
2020/12/13 06:57:30;;;;;;;230.10;100.78;;;;;;;-0.09;76.98;99734.22;2205325;80;35382;-69
2020/12/13 07:00:51;;;;;;;237.27;104.20;;;;;;;-0.13;76.82;99740.41;2204746;80;35263;-76
2020/12/13 07:03:57;;;;;;;218.95;97.53;;;;;;;-0.11;77.08;99736.00;2160564;80;28180;-70
2020/12/13 07:10:23;;;;;;;208.20;92.60;;;;;;;0.11;77.62;99760.23;2248381;78;37081;-68
2020/12/13 07:13:26;;;;;;;212.88;97.08;;;;;;;0.18;77.54;99755.31;2228600;79;27598;-66
2020/12/13 07:16:35;;;;;;;220.73;96.92;;;;;;;0.24;77.26;99759.17;2206729;78;28821;-69
2020/12/13 07:22:56;;;;;;;219.20;98.73;;;;;;;0.36;77.20;99763.81;2276894;77;36751;-70
2020/12/13 07:25:59;;;;;;;210.53;97.02;;;;;;;0.36;77.30;99773.89;2238753;78;28148;-64
2020/12/13 07:29:06;;;;;;;201.07;95.80;;;;;;;0.47;77.48;99783.41;2262032;78;28863;-66
2020/12/13 07:32:09;;;;;;;223.78;96.00;;;;;;;0.55;77.47;99778.86;2253685;78;31123;-66
2020/12/13 07:35:13;;;;;;;191.07;88.10;;;;;;;0.59;77.43;99779.23;2258777;78;34520;-67
2020/12/13 07:38:15;;;;;;;204.90;90.25;;;;;;;0.66;77.34;99786.16;2222237;79;28521;-64
2020/12/13 07:41:20;;;;;;;195.12;93.42;;;;;;;0.72;77.21;99782.53;2223209;78;28103;-72
2020/12/13 07:44:22;;;;;;;201.50;92.12;;;;;;;0.81;77.40;99789.41;2233263;78;28843;-66
2020/12/13 07:47:25;;;;;;;195.72;93.27;;;;;;;0.89;77.45;99794.08;2231058;78;31145;-72
2020/12/13 07:50:34;;;;;;;205.35;93.12;;;;;;;0.98;77.51;99789.98;2234673;78;33131;-75
2020/12/13 07:53:37;;;;;;;199.32;92.57;;;;;;;1.09;77.51;99791.06;2226201;78;28851;-71
2020/12/13 07:56:46;;;;;;;206.72;95.75;;;;;;;1.15;77.42;99798.88;2223289;78;27758;-73
2020/12/13 07:59:48;;;;;;;214.75;102.65;;;;;;;1.16;77.31;99802.41;2220366;78;28830;-63
2020/12/13 08:02:57;;;;;;;206.57;92.95;;;;;;;1.20;77.38;99800.10;2255021;78;32125;-74
2020/12/13 08:06:02;;;;;;;197.98;88.00;;;;;;;1.24;77.35;99799.61;2223177;78;33140;-63
2020/12/13 08:09:13;;;;;;;201.00;92.60;;;;;;;1.29;77.48;99799.05;2226764;78;29703;-67
2020/12/13 08:12:15;;;;;;;184.20;85.35;;;;;;;1.36;77.35;99808.60;2247940;78;27711;-74
2020/12/13 08:15:19;;;;;;;201.82;89.58;;;;;;;1.43;77.15;99811.98;2260745;78;28849;-65
2020/12/13 08:18:21;;;;;;;192.65;88.90;;;;;;;1.45;77.25;99815.47;2224080;78;31301;-67
2020/12/13 08:21:39;;;;;;;195.97;92.62;;;;;;;1.51;77.40;99818.84;2254848;78;33126;-75
2020/12/13 08:25:04;;;;;;;189.03;88.07;;;;;;;1.61;77.19;99823.49;2342302;76;27630;-71
2020/12/13 08:28:08;;;;;;;209.32;98.55;;;;;;;1.60;77.32;99828.78;2293907;77;27643;-71
2020/12/13 08:31:13;;;;;;;216.42;101.90;;;;;;;1.70;77.50;99830.79;2268861;77;29872;-65
2020/12/13 08:34:22;;;;;;;191.37;92.97;;;;;;;1.75;77.40;99828.47;2291195;77;32145;-78
2020/12/13 08:37:25;;;;;;;190.40;91.10;;;;;;;1.81;77.25;99829.67;2303069;77;33101;-71
2020/12/13 08:40:39;;;;;;;216.57;99.25;;;;;;;1.81;77.20;99827.50;2297071;77;29725;-73
2020/12/13 08:43:42;;;;;;;175.93;78.17;;;;;;;1.85;77.32;99833.11;2277617;77;27651;-72
2020/12/13 08:46:44;;;;;;;174.93;75.85;;;;;;;1.88;77.12;99838.80;2264938;77;30210;-72
2020/12/13 08:49:50;;;;;;;165.25;78.10;;;;;;;1.92;77.05;99840.44;2293044;77;31664;-63
2020/12/13 08:52:53;;;;;;;170.72;78.22;;;;;;;1.99;77.12;99840.75;2304314;77;34023;-76
2020/12/13 08:56:12;;;;;;;174.32;76.50;;;;;;;2.08;77.18;99852.88;2192725;80;28873;-75
2020/12/13 08:59:19;;;;;;;175.93;79.50;;;;;;;2.11;76.86;99854.14;2219242;80;27637;-72
2020/12/13 09:02:21;;;;;;;166.62;79.75;;;;;;;2.16;77.00;99861.50;2245677;78;29773;-67
2020/12/13 09:05:34;;;;;;;189.40;87.30;;;;;;;2.22;77.10;99860.05;2237136;78;31608;-73
2020/12/13 09:08:37;;;;;;;176.72;84.37;;;;;;;2.28;77.14;99863.00;2192707;80;33104;-67
2020/12/13 09:11:42;;;;;;;169.20;80.65;;;;;;;2.38;77.15;99875.12;2219256;80;28861;-73
2020/12/13 09:14:46;;;;;;;127.10;61.15;;;;;;;2.47;77.16;99879.77;2179314;80;27711;-66
2020/12/13 09:18:02;;;;;;;171.90;80.72;;;;;;;2.49;76.92;99870.03;2254115;78;29492;-74
2020/12/13 09:21:04;;;;;;;172.50;79.75;;;;;;;2.54;76.99;99873.44;2203686;80;31087;-65
2020/12/13 09:24:06;;;;;;;196.78;85.70;;;;;;;2.58;77.02;99875.97;2257651;78;34513;-67
2020/12/13 09:27:18;;;;;;;179.85;88.37;;;;;;;2.64;76.90;99874.09;2227749;78;28863;-68
2020/12/13 09:30:18;;;;;;;179.00;86.65;;;;;;;2.73;76.94;99876.03;2243402;78;27797;-65
2020/12/13 09:33:20;;;;;;;182.20;89.77;;;;;;;2.84;76.87;99870.48;2226304;79;28816;-69
2020/12/13 09:36:25;;;;;;;169.50;82.37;;;;;;;2.94;76.90;99867.63;2238468;78;31190;-65
2020/12/13 09:39:30;;;;;;;161.83;78.00;;;;;;;2.99;76.72;99864.39;2256933;78;32409;-68
2020/12/13 09:42:32;;;;;;;;;;;;;;;3.07;76.77;99867.73;2205698;80;28946;-64
2020/12/13 09:45:34;;;;;;;177.15;78.57;;;;;;;3.12;76.58;99867.16;2241605;78;27759;-67
2020/12/13 09:48:36;;;;;;;169.60;81.92;;;;;;;3.12;76.45;99868.92;2254622;77;28821;-65
2020/12/13 09:51:38;;;;;;;171.93;77.60;;;;;;;3.11;76.37;99858.80;2237022;78;32184;-64
2020/12/13 09:54:41;;;;;;;163.03;76.33;;;;;;;3.09;76.17;99861.94;2237226;78;33148;-67
2020/12/13 09:57:43;;;;;;;152.87;75.40;;;;;;;3.10;76.20;99862.80;2221774;80;29295;-68
2020/12/13 10:00:46;;;;;;;158.45;75.85;;;;;;;3.15;76.23;99864.41;2252453;78;27787;-69
2020/12/13 10:03:53;;;;;;;159.30;78.20;;;;;;;3.21;76.27;99863.41;2209854;80;28883;-64
2020/12/13 10:10:15;;;;;;;158.68;75.78;;;;;;;3.29;75.98;99861.88;2187117;80;33104;-67
2020/12/13 10:13:17;;;;;;;155.95;72.92;;;;;;;3.26;75.92;99867.25;2233945;77;29714;-67
2020/12/13 10:16:19;;;;;;;151.00;69.72;;;;;;;3.26;75.96;99870.75;2271806;77;27707;-66
2020/12/13 10:19:21;;;;;;;164.95;77.97;;;;;;;3.29;75.92;99864.53;2241488;77;29764;-67
2020/12/13 10:22:24;;;;;;;161.30;76.12;;;;;;;3.36;76.13;99874.02;2209817;78;31165;-71
2020/12/13 10:25:26;;;;;;;173.60;75.72;;;;;;;3.43;76.15;99865.45;2214241;78;33411;-67
2020/12/13 10:28:28;;;;;;;169.95;73.02;;;;;;;3.43;75.71;99865.45;2228787;78;28844;-66
2020/12/13 10:31:35;;;;;;;161.62;72.40;;;;;;;3.45;75.67;99862.31;2257937;77;27698;-68
2020/12/13 10:34:37;;;;;;;160.00;75.10;;;;;;;3.47;75.57;99860.06;2237452;79;28901;-65
2020/12/13 10:37:40;;;;;;;177.72;86.37;;;;;;;3.55;75.92;99869.11;2226144;79;31121;-64
2020/12/13 10:40:42;;;;;;;153.72;75.72;;;;;;;3.64;76.10;99868.84;2225761;80;33102;-63
2020/12/13 10:43:44;;;;;;;156.95;74.55;;;;;;;3.76;75.93;99860.12;2219641;79;29876;-63
2020/12/13 10:46:47;;;;;;;167.55;75.78;;;;;;;3.82;75.67;99863.94;2199542;79;27671;-62
2020/12/13 10:49:49;;;;;;;161.55;77.87;;;;;;;3.90;75.83;99867.22;2218370;80;29759;-71
2020/12/13 10:52:53;;;;;;;166.68;79.37;;;;;;;4.01;75.82;99865.58;2258092;78;31175;-63
2020/12/13 10:55:56;;;;;;;123.17;57.90;;;;;;;4.09;75.66;99859.61;2251614;78;33105;-67
2020/12/13 10:58:58;;;;;;;162.07;78.07;;;;;;;4.17;75.54;99862.47;2255801;78;29809;-63
2020/12/13 11:02:00;;;;;;;155.60;76.53;;;;;;;4.24;75.58;99866.68;2239579;78;28273;-71
2020/12/13 11:05:04;;;;;;;154.65;76.97;;;;;;;4.30;75.46;99870.48;2195511;80;29780;-75
2020/12/13 11:08:06;;;;;;;168.50;79.55;;;;;;;4.33;75.26;99870.36;2182653;80;31202;-70
2020/12/13 11:11:08;;;;;;;170.85;78.92;;;;;;;4.38;75.41;99863.14;2179369;80;33123;-68
2020/12/13 11:14:11;;;;;;;164.90;77.03;;;;;;;4.46;75.49;99865.55;2249699;78;28916;-66
2020/12/13 11:17:13;;;;;;;188.35;89.07;;;;;;;4.50;75.12;99874.27;2179996;80;27559;-65
2020/12/13 11:20:16;;;;;;;187.22;88.90;;;;;;;4.55;75.02;99871.03;2248234;78;29624;-61
2020/12/13 11:23:18;;;;;;;195.05;89.85;;;;;;;4.59;75.00;99869.14;2211261;80;31155;-62
2020/12/13 11:26:25;;;;;;;176.63;89.40;;;;;;;4.67;75.09;99877.26;2228700;79;33302;-65
2020/12/13 11:29:27;;;;;;;165.52;83.78;;;;;;;4.71;74.91;99874.92;2218039;79;28828;-61
2020/12/13 11:32:29;;;;;;;176.42;85.62;;;;;;;4.77;74.70;99873.00;2210556;79;27705;-63
2020/12/13 11:35:31;;;;;;;175.03;83.17;;;;;;;4.78;74.65;99874.27;2228752;78;28794;-61
2020/12/13 11:38:34;;;;;;;170.40;82.70;;;;;;;4.81;74.75;99874.17;2228610;79;31136;-61
2020/12/13 11:41:37;;;;;;;157.20;74.10;;;;;;;4.86;74.60;99877.55;2226050;78;33305;-61
2020/12/13 11:44:39;;;;;;;154.23;70.85;;;;;;;4.87;74.21;99882.38;2228438;78;29811;-63
2020/12/13 11:47:41;;;;;;;143.22;71.80;;;;;;;4.89;74.35;99886.30;2228756;78;27663;-61
2020/12/13 11:50:50;;;;;;;150.12;71.87;;;;;;;4.92;74.19;99893.72;2227726;79;30080;-61
2020/12/13 11:53:49;;;;;;;124.23;58.30;;;;;;;4.94;74.30;99890.56;2228399;79;31211;-63
2020/12/13 11:56:52;;;;;;;154.35;74.80;;;;;;;5.01;74.29;99894.73;2220496;78;34016;-63
2020/12/13 11:59:54;;;;;;;158.00;77.65;;;;;;;5.07;74.11;99890.15;2219064;80;28863;-65
2020/12/13 12:02:58;;;;;;;150.03;76.07;;;;;;;5.12;74.17;99883.76;2198732;79;27646;-62
2020/12/13 12:06:00;;;;;;;145.68;74.40;;;;;;;5.19;74.26;99884.89;2189694;81;29364;-61
2020/12/13 12:09:04;;;;;;;148.78;73.92;;;;;;;5.25;73.95;99883.33;2191267;79;31131;-63
2020/12/13 12:12:06;;;;;;;144.02;75.60;;;;;;;5.23;73.62;99886.05;2210270;79;33109;-61
2020/12/13 12:15:09;;;;;;;158.87;77.00;;;;;;;5.18;73.56;99884.00;2228745;79;28867;-63
2020/12/13 12:18:12;;;;;;;154.53;77.45;;;;;;;5.16;73.74;99881.86;2227802;79;27732;-61
2020/12/13 12:21:17;;;;;;;150.68;75.28;;;;;;;5.17;73.80;99888.91;2219695;78;28821;-61
2020/12/13 12:27:33;;;;;;;153.00;71.50;;;;;;;5.18;73.45;99874.71;2247624;78;28000;-59
2020/12/13 12:30:38;;;;;;;147.65;70.42;;;;;;;5.15;73.65;99880.13;2227495;79;27624;-60
2020/12/13 12:33:40;;;;;;;158.87;77.30;;;;;;;5.22;73.93;99882.10;2220341;79;28821;-60
2020/12/13 12:36:42;;;;;;;154.68;77.58;;;;;;;5.30;74.02;99880.92;2227760;79;31111;-59
2020/12/13 12:39:45;;;;;;;158.75;83.30;;;;;;;5.38;73.71;99881.98;2219314;78;33042;-59
2020/12/13 12:42:47;;;;;;;176.27;88.00;;;;;;;5.43;73.79;99887.16;2179612;81;28540;-60
2020/12/13 12:45:51;;;;;;;166.97;84.03;;;;;;;5.48;73.72;99890.05;2208012;80;27824;-61
2020/12/13 12:48:54;;;;;;;168.80;84.45;;;;;;;5.51;73.52;99895.70;2208185;80;29780;-63
2020/12/13 12:51:57;;;;;;;176.45;88.40;;;;;;;5.53;73.51;99900.51;2179381;81;31062;-61
2020/12/13 12:55:00;;;;;;;145.90;74.62;;;;;;;5.51;73.45;99904.16;2205169;80;34276;-61
2020/12/13 12:58:04;;;;;;;161.82;79.12;;;;;;;5.51;73.16;99908.14;2188221;80;29288;-67
2020/12/13 13:01:10;;;;;;;195.22;96.45;;;;;;;5.47;73.38;99910.90;2194242;80;27817;-61
2020/12/13 13:04:23;;;;;;;179.40;91.35;;;;;;;5.47;73.34;99909.56;2215065;80;28838;-60
2020/12/13 13:07:25;;;;;;;165.00;82.60;;;;;;;5.46;73.32;99909.64;2210072;80;31145;-64
2020/12/13 13:10:31;;;;;;;203.75;98.82;;;;;;;5.45;73.28;99920.70;2179335;81;34054;-61
2020/12/13 13:13:33;;;;;;;179.45;87.90;;;;;;;5.43;73.24;99914.57;2183218;80;30224;-61
2020/12/13 13:16:35;;;;;;;174.60;85.57;;;;;;;5.39;73.21;99912.08;2202342;80;27645;-60
2020/12/13 13:19:39;;;;;;;190.05;90.45;;;;;;;5.37;73.26;99916.13;2196698;80;28834;-62
2020/12/13 13:22:42;;;;;;;171.75;85.97;;;;;;;5.34;73.21;99920.22;2197756;80;31153;-61
2020/12/13 13:25:44;;;;;;;157.10;77.03;;;;;;;5.35;73.29;99922.39;2180081;80;33555;-61
2020/12/13 13:28:47;;;;;;;165.60;80.83;;;;;;;5.38;73.39;99923.15;2182318;81;31109;-61
2020/12/13 13:31:57;;;;;;;146.65;77.30;;;;;;;5.41;73.40;99920.88;2169617;81;27708;-61
2020/12/13 13:34:59;;;;;;;156.55;80.20;;;;;;;5.42;73.25;99927.45;2195122;81;28827;-60
2020/12/13 13:38:04;;;;;;;149.18;74.90;;;;;;;5.44;73.31;99934.05;2194841;80;32032;-64
2020/12/13 13:41:10;;;;;;;156.65;76.20;;;;;;;5.44;73.22;99931.40;2192930;81;34368;-61
2020/12/13 13:47:48;;;;;;;149.57;75.07;;;;;;;5.45;73.24;99927.82;2342226;76;27860;-60
2020/12/13 13:50:45;;;;;;;144.40;74.82;;;;;;;5.38;73.13;99929.79;2258468;77;27696;-59
2020/12/13 13:53:48;;;;;;;146.13;74.20;;;;;;;5.35;73.28;99935.23;2261406;78;29025;-59
2020/12/13 13:57:02;;;;;;;147.43;76.80;;;;;;;5.29;73.20;99936.31;2261571;77;31549;-60
2020/12/13 14:00:07;;;;;;;161.15;73.80;;;;;;;5.27;73.23;99943.47;2272530;75;33165;-62
2020/12/13 14:03:10;;;;;;;153.35;76.17;;;;;;;5.24;73.32;99955.52;2271029;77;27918;-60
2020/12/13 14:06:25;;;;;;;153.68;75.83;;;;;;;5.25;73.26;99959.91;2261865;78;27733;-60
2020/12/13 14:09:22;;;;;;;227.53;110.83;;;;;;;5.23;73.21;99967.49;2260968;77;29702;-62
2020/12/13 14:12:24;;;;;;;176.15;90.95;;;;;;;5.21;73.20;99966.23;2261471;78;31236;-67
2020/12/13 14:15:27;;;;;;;180.72;90.32;;;;;;;5.19;73.24;99967.21;2277468;77;33625;-67
2020/12/13 14:18:29;;;;;;;177.50;88.58;;;;;;;5.14;73.27;99969.55;2261695;78;28838;-65
2020/12/13 14:21:33;;;;;;;162.65;80.97;;;;;;;5.08;73.18;99974.19;2290506;77;27593;-72
2020/12/13 14:24:35;;;;;;;163.12;81.00;;;;;;;4.99;73.21;99971.37;2205183;80;28810;-64
2020/12/13 14:27:37;;;;;;;178.10;91.37;;;;;;;4.95;73.33;99978.58;2201014;80;31122;-66
2020/12/13 14:30:40;;;;;;;142.85;73.80;;;;;;;4.93;73.45;99975.53;2202896;80;33158;-69